createdAt,value
2023-05-16T00:02:14.477Z,13.38
2023-05-16T00:04:42.462Z,13.38
2023-05-16T00:07:10.136Z,13.37
2023-05-16T00:09:37.685Z,13.24
2023-05-16T00:12:06.034Z,13.23
2023-05-16T00:14:34.785Z,13.29
2023-05-16T00:17:05.007Z,13.20
2023-05-16T00:19:32.968Z,13.22
2023-05-16T00:22:00.753Z,13.30
2023-05-16T00:24:28.335Z,13.25
2023-05-16T00:26:55.934Z,13.16
2023-05-16T00:29:24.587Z,13.20
2023-05-16T00:31:52.162Z,13.15
2023-05-16T00:34:21.458Z,13.12
2023-05-16T00:36:52.013Z,13.01
2023-05-16T00:39:19.738Z,13.04
2023-05-16T00:41:47.715Z,13.03
2023-05-16T00:44:15.857Z,12.94
2023-05-16T00:46:44.136Z,12.84
2023-05-16T00:49:12.978Z,12.97
2023-05-16T00:51:41.000Z,12.89
2023-05-16T00:54:08.658Z,12.93
2023-05-16T00:56:37.100Z,12.90
2023-05-16T00:59:04.874Z,12.87
2023-05-16T01:01:35.213Z,12.77
2023-05-16T01:04:03.724Z,12.86
2023-05-16T01:06:31.604Z,12.85
2023-05-16T01:08:59.670Z,12.87
2023-05-16T01:11:31.728Z,12.88
2023-05-16T01:13:59.200Z,12.84
2023-05-16T01:16:37.944Z,12.83
2023-05-16T01:19:53.389Z,12.84
2023-05-16T01:22:34.747Z,12.70
2023-05-16T01:25:17.583Z,12.72
2023-05-16T01:27:46.118Z,12.67
2023-05-16T01:30:16.732Z,12.69
2023-05-16T01:32:44.961Z,12.73
2023-05-16T01:35:16.197Z,12.71
2023-05-16T01:38:11.606Z,12.85
2023-05-16T01:40:44.608Z,12.76
2023-05-16T01:43:17.259Z,12.83
2023-05-16T01:45:53.772Z,12.90
2023-05-16T01:48:31.405Z,12.89
2023-05-16T01:51:02.549Z,12.85
2023-05-16T01:53:37.712Z,12.86
2023-05-16T01:56:14.129Z,12.81
2023-05-16T01:58:43.527Z,12.77
2023-05-16T02:01:13.600Z,12.70
2023-05-16T02:03:41.629Z,12.70
2023-05-16T02:06:09.369Z,12.71
2023-05-16T02:08:37.036Z,12.72
2023-05-16T02:11:04.692Z,12.83
2023-05-16T02:13:32.491Z,12.77
2023-05-16T02:16:05.673Z,12.76
2023-05-16T02:18:33.551Z,12.75
2023-05-16T02:21:01.372Z,12.81
2023-05-16T02:23:29.010Z,12.84
2023-05-16T02:25:56.604Z,12.80
2023-05-16T02:28:24.233Z,12.86
2023-05-16T02:31:00.117Z,12.80
2023-05-16T02:33:29.070Z,12.81
2023-05-16T02:35:56.685Z,12.78
2023-05-16T02:38:27.447Z,12.78
2023-05-16T02:40:56.719Z,12.78
2023-05-16T02:43:24.280Z,12.90
2023-05-16T02:45:53.226Z,12.87
2023-05-16T02:48:21.083Z,12.95
2023-05-16T02:50:48.671Z,13.04
2023-05-16T02:53:16.316Z,13.09
2023-05-16T02:55:43.962Z,13.22
2023-05-16T02:58:11.481Z,13.24
2023-05-16T03:00:39.092Z,13.30
2023-05-16T03:03:06.689Z,13.38
2023-05-16T03:05:34.376Z,13.51
2023-05-16T03:08:01.972Z,13.56
2023-05-16T03:10:29.702Z,13.58
2023-05-16T03:12:57.654Z,13.68
2023-05-16T03:15:25.522Z,13.77
2023-05-16T03:17:53.190Z,13.83
2023-05-16T03:20:21.237Z,13.90
2023-05-16T03:22:49.020Z,13.97
2023-05-16T03:25:16.700Z,14.07
2023-05-16T03:27:44.211Z,14.16
2023-05-16T03:30:13.178Z,14.30
2023-05-16T03:32:41.011Z,14.45
2023-05-16T03:35:09.054Z,14.59
2023-05-16T03:37:37.340Z,14.67
2023-05-16T03:40:05.911Z,14.79
2023-05-16T03:42:33.626Z,15.00
2023-05-16T03:45:01.353Z,15.12
2023-05-16T03:47:32.042Z,15.28
2023-05-16T03:49:59.852Z,15.47
2023-05-16T03:52:27.370Z,15.60
2023-05-16T03:54:54.945Z,15.67
2023-05-16T03:57:22.694Z,15.86
2023-05-16T03:59:50.293Z,15.95
2023-05-16T04:02:18.853Z,16.02
2023-05-16T04:04:46.961Z,16.08
2023-05-16T04:07:14.477Z,16.04
2023-05-16T04:09:42.076Z,16.08
2023-05-16T04:12:09.605Z,16.21
2023-05-16T04:14:37.131Z,16.07
2023-05-16T04:17:05.244Z,16.27
2023-05-16T04:19:32.882Z,16.27
2023-05-16T04:22:00.481Z,16.34
2023-05-16T04:24:29.136Z,16.32
2023-05-16T04:26:56.957Z,16.46
2023-05-16T04:29:24.434Z,16.49
2023-05-16T04:31:52.382Z,16.44
2023-05-16T04:34:20.058Z,16.48
2023-05-16T04:36:47.766Z,16.56
2023-05-16T04:39:15.277Z,16.65
2023-05-16T04:41:43.221Z,16.73
2023-05-16T04:44:11.330Z,16.72
2023-05-16T04:46:39.444Z,16.82
2023-05-16T04:49:07.086Z,16.86
2023-05-16T04:51:35.275Z,16.93
2023-05-16T04:54:03.053Z,17.03
2023-05-16T04:56:30.809Z,17.17
2023-05-16T04:58:58.352Z,17.17
2023-05-16T05:01:25.981Z,17.20
2023-05-16T05:03:53.714Z,17.35
2023-05-16T05:06:21.612Z,17.46
2023-05-16T05:08:49.358Z,17.66
2023-05-16T05:11:17.586Z,17.89
2023-05-16T05:13:45.922Z,18.02
2023-05-16T05:16:13.726Z,18.14
2023-05-16T05:18:41.349Z,18.31
2023-05-16T05:21:08.942Z,18.52
2023-05-16T05:23:36.500Z,18.60
2023-05-16T05:26:04.252Z,18.73
2023-05-16T05:28:31.861Z,18.80
2023-05-16T05:30:59.706Z,18.75
2023-05-16T05:33:29.651Z,18.67
2023-05-16T05:35:57.918Z,18.62
2023-05-16T05:38:25.891Z,18.62
2023-05-16T05:40:53.763Z,18.77
2023-05-16T05:43:21.349Z,18.87
2023-05-16T05:45:49.098Z,18.77
2023-05-16T05:48:16.912Z,18.85
2023-05-16T05:50:44.594Z,19.03
2023-05-16T05:53:12.269Z,19.03
2023-05-16T05:55:42.331Z,19.02
2023-05-16T05:58:09.981Z,18.87
2023-05-16T06:00:38.179Z,18.91
2023-05-16T06:03:06.209Z,18.96
2023-05-16T06:05:33.857Z,18.97
2023-05-16T06:08:01.464Z,19.15
2023-05-16T06:10:29.964Z,19.17
2023-05-16T06:12:57.718Z,19.21
2023-05-16T06:15:26.914Z,19.20
2023-05-16T06:17:54.732Z,19.32
2023-05-16T06:20:22.480Z,19.37
2023-05-16T06:22:49.987Z,19.50
2023-05-16T06:25:17.768Z,19.61
2023-05-16T06:27:45.401Z,19.51
2023-05-16T06:30:13.294Z,19.53
2023-05-16T06:32:41.704Z,19.63
2023-05-16T06:35:09.983Z,19.70
2023-05-16T06:37:37.674Z,19.79
2023-05-16T06:40:05.932Z,20.16
2023-05-16T06:42:34.058Z,20.46
2023-05-16T06:45:01.815Z,20.80
2023-05-16T06:47:34.675Z,21.19
2023-05-16T06:50:02.615Z,21.59
2023-05-16T06:52:32.715Z,21.93
2023-05-16T06:55:00.394Z,22.32
2023-05-16T06:57:29.366Z,22.46
2023-05-16T06:59:57.132Z,22.43
2023-05-16T07:02:24.924Z,22.33
2023-05-16T07:04:52.679Z,22.55
2023-05-16T07:07:20.264Z,22.76
2023-05-16T07:09:47.972Z,23.12
2023-05-16T07:12:15.588Z,23.77
2023-05-16T07:14:43.814Z,23.73
2023-05-16T07:17:11.893Z,23.96
2023-05-16T07:19:39.773Z,24.26
2023-05-16T07:22:07.424Z,24.15
2023-05-16T07:24:36.502Z,24.16
2023-05-16T07:27:04.429Z,24.40
2023-05-16T07:29:32.039Z,24.60
2023-05-16T07:31:59.626Z,24.94
2023-05-16T07:34:27.411Z,25.11
2023-05-16T07:36:54.985Z,25.48
2023-05-16T07:39:22.999Z,25.97
2023-05-16T07:41:50.626Z,26.30
2023-05-16T07:44:18.232Z,26.38
2023-05-16T07:46:46.203Z,26.67
2023-05-16T07:49:13.848Z,26.77
2023-05-16T07:51:41.353Z,26.72
2023-05-16T07:54:09.032Z,26.71
2023-05-16T07:56:36.841Z,26.91
2023-05-16T07:59:06.055Z,27.17
2023-05-16T08:01:33.870Z,27.17
2023-05-16T08:04:01.469Z,27.35
2023-05-16T08:06:29.971Z,27.37
2023-05-16T08:08:57.979Z,27.43
2023-05-16T08:11:25.710Z,27.55
2023-05-16T08:13:53.511Z,28.24
2023-05-16T08:16:21.303Z,28.55
2023-05-16T08:18:48.961Z,28.69
2023-05-16T08:21:16.900Z,28.80
2023-05-16T08:23:44.722Z,28.63
2023-05-16T08:26:12.838Z,29.04
2023-05-16T08:28:40.635Z,29.03
2023-05-16T08:31:08.454Z,29.46
2023-05-16T08:33:36.035Z,30.02
2023-05-16T08:36:03.959Z,30.60
2023-05-16T08:38:31.566Z,30.68
2023-05-16T08:40:59.223Z,31.00
2023-05-16T08:43:26.898Z,31.24
2023-05-16T08:45:54.634Z,30.86
2023-05-16T08:48:24.559Z,30.90
2023-05-16T08:50:53.441Z,30.71
2023-05-16T08:53:31.260Z,30.93
2023-05-16T08:56:00.527Z,31.19
2023-05-16T08:58:30.160Z,31.57
2023-05-16T09:00:58.151Z,31.83
2023-05-16T09:03:26.011Z,32.27
2023-05-16T09:05:53.737Z,32.66
2023-05-16T09:08:21.563Z,32.81
2023-05-16T09:10:49.230Z,32.68
2023-05-16T09:13:17.101Z,32.56
2023-05-16T09:15:45.747Z,32.63
2023-05-16T09:18:16.270Z,33.13
2023-05-16T09:20:50.365Z,33.44
2023-05-16T09:23:24.769Z,33.45
2023-05-16T09:25:56.457Z,33.36
2023-05-16T09:28:26.401Z,33.33
2023-05-16T09:30:55.848Z,33.41
2023-05-16T09:33:24.013Z,33.95
2023-05-16T09:36:01.910Z,34.62
2023-05-16T09:38:29.978Z,34.55
2023-05-16T09:40:57.638Z,34.64
2023-05-16T09:43:28.117Z,34.92
2023-05-16T09:45:59.921Z,34.78
2023-05-16T09:48:28.616Z,34.01
2023-05-16T09:50:57.979Z,33.36
2023-05-16T09:53:30.584Z,33.70
2023-05-16T09:56:06.866Z,34.46
2023-05-16T09:58:36.641Z,34.51
2023-05-16T10:01:06.029Z,34.11
2023-05-16T10:03:39.621Z,33.89
2023-05-16T10:06:08.269Z,33.88
2023-05-16T10:08:37.672Z,34.02
2023-05-16T10:11:07.038Z,34.57
2023-05-16T10:13:36.252Z,34.84
2023-05-16T10:16:11.446Z,35.35
2023-05-16T10:18:40.896Z,35.85
2023-05-16T10:21:13.669Z,35.72
2023-05-16T10:23:48.418Z,35.50
2023-05-16T10:26:17.956Z,35.35
2023-05-16T10:28:46.023Z,34.91
2023-05-16T10:31:14.787Z,34.47
2023-05-16T10:33:42.930Z,34.41
2023-05-16T10:36:11.442Z,34.59
2023-05-16T10:38:40.466Z,35.10
2023-05-16T10:41:08.982Z,34.79
2023-05-16T10:43:36.936Z,34.70
2023-05-16T10:46:10.013Z,35.04
2023-05-16T10:48:39.739Z,34.80
2023-05-16T10:51:22.456Z,35.02
2023-05-16T10:54:06.401Z,35.06
2023-05-16T10:56:35.353Z,34.42
2023-05-16T10:59:04.981Z,34.84
2023-05-16T11:01:36.488Z,35.17
2023-05-16T11:04:10.385Z,34.84
2023-05-16T11:06:41.185Z,34.90
2023-05-16T11:09:22.424Z,35.36
2023-05-16T11:11:53.392Z,35.31
2023-05-16T11:14:42.401Z,35.04
2023-05-16T11:17:15.604Z,34.08
2023-05-16T11:19:51.418Z,34.00
2023-05-16T11:22:19.190Z,33.65
2023-05-16T11:25:09.307Z,33.86
2023-05-16T11:27:43.896Z,33.77
2023-05-16T11:30:16.160Z,33.84
2023-05-16T11:32:46.054Z,33.81
2023-05-16T11:35:16.024Z,33.54
2023-05-16T11:37:45.313Z,33.66
2023-05-16T11:40:14.801Z,33.74
2023-05-16T11:42:44.943Z,34.19
2023-05-16T11:45:21.571Z,34.46
2023-05-16T11:47:49.836Z,33.88
2023-05-16T11:50:23.839Z,33.27
2023-05-16T11:52:54.224Z,33.14
2023-05-16T11:55:40.199Z,33.56
2023-05-16T11:58:10.446Z,33.61
2023-05-16T12:00:48.965Z,33.13
2023-05-16T12:03:18.610Z,32.52
2023-05-16T12:06:00.980Z,32.52
2023-05-16T12:08:28.995Z,32.17
2023-05-16T12:10:56.893Z,32.05
2023-05-16T12:13:25.809Z,32.24
2023-05-16T12:15:53.724Z,32.16
2023-05-16T12:18:22.158Z,32.00
2023-05-16T12:20:50.204Z,31.42
2023-05-16T12:23:17.809Z,30.96
2023-05-16T12:25:47.522Z,30.63
2023-05-16T12:28:16.305Z,30.66
2023-05-16T12:30:46.147Z,30.15
2023-05-16T12:33:16.484Z,29.39
2023-05-16T12:35:45.958Z,28.81
2023-05-16T12:38:15.260Z,28.04
2023-05-16T12:40:44.440Z,27.04
2023-05-16T12:43:23.199Z,26.29
2023-05-16T12:45:58.637Z,25.68
2023-05-16T12:48:35.875Z,25.34
2023-05-16T12:51:17.956Z,25.19
2023-05-16T12:54:05.825Z,24.66
2023-05-16T12:56:40.790Z,24.28
2023-05-16T12:59:09.435Z,23.99
2023-05-16T13:01:37.335Z,23.63
2023-05-16T13:04:05.958Z,23.21
2023-05-16T13:06:48.830Z,23.06
2023-05-16T13:09:18.224Z,22.92
2023-05-16T13:11:46.125Z,22.95
2023-05-16T13:14:13.838Z,22.71
2023-05-16T13:16:41.650Z,22.64
2023-05-16T13:19:09.754Z,22.47
2023-05-16T13:21:37.677Z,22.34
2023-05-16T13:24:05.782Z,22.28
2023-05-16T13:26:33.508Z,22.30
2023-05-16T13:29:03.382Z,22.23
2023-05-16T13:31:31.141Z,22.09
2023-05-16T13:33:59.157Z,21.97
2023-05-16T13:36:27.009Z,21.87
2023-05-16T13:38:55.227Z,21.84
2023-05-16T13:41:22.962Z,21.77
2023-05-16T13:43:50.810Z,21.80
2023-05-16T13:46:18.510Z,21.75
2023-05-16T13:48:46.139Z,21.64
2023-05-16T13:51:13.912Z,21.62
2023-05-16T13:53:41.551Z,21.50
2023-05-16T13:56:09.215Z,21.28
2023-05-16T13:58:43.020Z,21.28
2023-05-16T14:01:21.456Z,21.19
2023-05-16T14:03:49.111Z,21.14
2023-05-16T14:06:16.817Z,21.07
2023-05-16T14:08:44.468Z,21.00
2023-05-16T14:11:12.071Z,20.90
2023-05-16T14:13:40.477Z,20.86
2023-05-16T14:16:10.512Z,20.82
2023-05-16T14:18:38.195Z,20.69
2023-05-16T14:21:07.174Z,20.73
2023-05-16T14:23:36.230Z,20.68
2023-05-16T14:26:06.955Z,20.63
2023-05-16T14:28:35.486Z,20.62
2023-05-16T14:31:03.348Z,20.50
2023-05-16T14:33:33.501Z,20.56
2023-05-16T14:36:04.776Z,20.41
2023-05-16T14:38:36.750Z,20.41
2023-05-16T14:41:04.376Z,20.38
2023-05-16T14:43:32.593Z,20.48
2023-05-16T14:46:00.238Z,20.38
2023-05-16T14:48:28.121Z,20.38
2023-05-16T14:50:55.721Z,20.41
2023-05-16T14:53:24.038Z,20.36
2023-05-16T14:55:51.931Z,20.22
2023-05-16T14:58:23.079Z,20.28
2023-05-16T15:00:51.680Z,20.21
2023-05-16T15:03:20.376Z,20.11
2023-05-16T15:05:48.399Z,20.14
2023-05-16T15:08:16.162Z,20.04
2023-05-16T15:10:43.958Z,20.06
2023-05-16T15:13:11.601Z,20.14
2023-05-16T15:15:39.260Z,20.07
2023-05-16T15:18:07.078Z,20.02
2023-05-16T15:20:34.729Z,20.01
2023-05-16T15:23:02.302Z,19.97
2023-05-16T15:25:30.259Z,19.95
2023-05-16T15:27:58.125Z,19.85
2023-05-16T15:30:25.755Z,19.89
2023-05-16T15:32:53.566Z,19.76
2023-05-16T15:35:21.235Z,19.76
2023-05-16T15:37:48.977Z,19.68
2023-05-16T15:40:19.321Z,19.74
2023-05-16T15:42:48.984Z,19.71
2023-05-16T15:45:16.899Z,19.68
2023-05-16T15:47:44.663Z,19.71
2023-05-16T15:50:13.621Z,19.67
2023-05-16T15:52:41.505Z,19.62
2023-05-16T15:55:09.623Z,19.59
2023-05-16T15:57:37.811Z,19.60
2023-05-16T16:00:06.185Z,19.59
2023-05-16T16:02:40.426Z,19.55
2023-05-16T16:05:08.715Z,19.52
2023-05-16T16:07:36.771Z,19.42
2023-05-16T16:10:04.635Z,19.48
2023-05-16T16:12:32.873Z,19.33
2023-05-16T16:15:02.462Z,19.40
2023-05-16T16:17:33.450Z,19.33
2023-05-16T16:20:01.231Z,19.25
2023-05-16T16:22:29.390Z,19.27
2023-05-16T16:24:57.150Z,19.27
2023-05-16T16:27:24.886Z,19.18
2023-05-16T16:29:52.859Z,19.19
2023-05-16T16:32:20.767Z,19.20
2023-05-16T16:34:48.458Z,19.24
2023-05-16T16:37:16.209Z,19.20
2023-05-16T16:39:43.836Z,19.13
2023-05-16T16:42:11.713Z,19.18
2023-05-16T16:44:39.423Z,19.11
2023-05-16T16:47:07.393Z,19.03
2023-05-16T16:49:35.197Z,19.04
2023-05-16T16:52:02.820Z,18.95
2023-05-16T16:54:30.602Z,18.89
2023-05-16T16:56:58.185Z,18.93
2023-05-16T16:59:25.765Z,18.92
2023-05-16T17:01:53.541Z,18.88
2023-05-16T17:04:21.488Z,18.74
2023-05-16T17:06:49.231Z,18.81
2023-05-16T17:09:18.531Z,18.79
2023-05-16T17:11:46.926Z,18.74
2023-05-16T17:14:15.265Z,18.71
2023-05-16T17:16:43.095Z,18.64
2023-05-16T17:19:11.564Z,18.53
2023-05-16T17:21:40.898Z,18.56
2023-05-16T17:24:08.909Z,18.52
2023-05-16T17:26:36.841Z,18.48
2023-05-16T17:29:06.053Z,18.43
2023-05-16T17:31:38.098Z,18.40
2023-05-16T17:34:08.921Z,18.33
2023-05-16T17:36:37.268Z,18.28
2023-05-16T17:39:08.216Z,18.28
2023-05-16T17:41:36.390Z,18.16
2023-05-16T17:44:07.033Z,18.19
2023-05-16T17:46:37.068Z,18.15
2023-05-16T17:49:07.762Z,18.12
2023-05-16T17:51:52.641Z,18.10
2023-05-16T17:54:22.208Z,18.03
2023-05-16T17:56:51.100Z,18.02
2023-05-16T17:59:19.420Z,18.00
2023-05-16T18:01:47.615Z,17.95
2023-05-16T18:04:15.441Z,17.93
2023-05-16T18:06:44.242Z,17.91
2023-05-16T18:09:12.092Z,17.86
2023-05-16T18:11:40.780Z,17.86
2023-05-16T18:14:14.150Z,17.82
2023-05-16T18:16:41.954Z,17.70
2023-05-16T18:19:14.035Z,17.74
2023-05-16T18:21:44.464Z,17.73
2023-05-16T18:24:13.259Z,17.64
2023-05-16T18:26:41.027Z,17.60
2023-05-16T18:29:10.746Z,17.68
2023-05-16T18:31:41.324Z,17.66
2023-05-16T18:34:09.744Z,17.62
2023-05-16T18:36:37.561Z,17.63
2023-05-16T18:39:05.731Z,17.58
2023-05-16T18:41:33.444Z,17.54
2023-05-16T18:44:02.269Z,17.52
2023-05-16T18:46:44.301Z,17.49
2023-05-16T18:49:13.689Z,17.48
2023-05-16T18:51:41.591Z,17.47
2023-05-16T18:54:09.603Z,17.46
2023-05-16T18:56:37.290Z,17.41
2023-05-16T18:59:05.144Z,17.31
2023-05-16T19:01:33.087Z,17.38
2023-05-16T19:04:01.052Z,17.32
2023-05-16T19:06:29.017Z,17.33
2023-05-16T19:08:56.686Z,17.34
2023-05-16T19:11:24.326Z,17.33
2023-05-16T19:13:51.962Z,17.27
2023-05-16T19:16:19.567Z,17.19
2023-05-16T19:18:47.394Z,17.12
2023-05-16T19:21:15.870Z,17.18
2023-05-16T19:23:44.287Z,17.17
2023-05-16T19:26:11.992Z,17.15
2023-05-16T19:28:40.959Z,17.03
2023-05-16T19:31:10.153Z,17.01
2023-05-16T19:33:38.216Z,17.06
2023-05-16T19:36:06.424Z,16.93
2023-05-16T19:38:34.040Z,16.92
2023-05-16T19:41:01.869Z,16.90
2023-05-16T19:43:29.925Z,16.96
2023-05-16T19:45:58.283Z,16.88
2023-05-16T19:48:26.663Z,16.92
2023-05-16T19:50:54.391Z,16.85
2023-05-16T19:53:22.620Z,16.88
2023-05-16T19:55:50.363Z,16.85
2023-05-16T19:58:18.175Z,16.77
2023-05-16T20:00:47.128Z,16.78
2023-05-16T20:03:14.839Z,16.71
2023-05-16T20:05:42.904Z,16.77
2023-05-16T20:08:12.698Z,16.73
2023-05-16T20:10:42.412Z,16.71
2023-05-16T20:13:10.918Z,16.68
2023-05-16T20:15:38.703Z,16.59
2023-05-16T20:18:06.789Z,16.64
2023-05-16T20:20:34.863Z,16.62
2023-05-16T20:23:02.819Z,16.53
2023-05-16T20:25:32.197Z,16.58
2023-05-16T20:28:00.102Z,16.54
2023-05-16T20:30:28.523Z,16.53
2023-05-16T20:32:56.607Z,16.45
2023-05-16T20:35:24.817Z,16.41
2023-05-16T20:37:52.434Z,16.45
2023-05-16T20:40:20.540Z,16.47
2023-05-16T20:42:49.495Z,16.44
2023-05-16T20:45:17.309Z,16.42
2023-05-16T20:47:45.231Z,16.42
2023-05-16T20:50:13.028Z,16.42
2023-05-16T20:52:40.661Z,16.40
2023-05-16T20:55:09.152Z,16.36
2023-05-16T20:57:36.791Z,16.33
2023-05-16T21:00:05.360Z,16.27
2023-05-16T21:02:37.960Z,16.31
2023-05-16T21:05:20.186Z,16.31
2023-05-16T21:07:52.989Z,16.34
2023-05-16T21:10:20.871Z,16.30
2023-05-16T21:12:50.323Z,16.28
2023-05-16T21:15:18.414Z,16.27
2023-05-16T21:17:46.637Z,16.25
2023-05-16T21:20:14.385Z,16.26
2023-05-16T21:22:42.665Z,16.26
2023-05-16T21:25:10.535Z,16.25
2023-05-16T21:27:38.488Z,16.22
2023-05-16T21:30:07.004Z,16.21
2023-05-16T21:32:34.745Z,16.20
2023-05-16T21:35:04.365Z,16.23
2023-05-16T21:37:34.148Z,16.17
2023-05-16T21:40:02.097Z,16.12
2023-05-16T21:42:32.375Z,16.09
2023-05-16T21:45:00.150Z,16.02
2023-05-16T21:47:27.826Z,16.01
2023-05-16T21:49:55.520Z,15.98
2023-05-16T21:52:23.182Z,15.93
2023-05-16T21:54:52.046Z,15.87
2023-05-16T21:57:20.070Z,15.81
2023-05-16T21:59:50.638Z,15.84
2023-05-16T22:02:22.915Z,15.81
2023-05-16T22:04:52.439Z,15.71
2023-05-16T22:07:20.447Z,15.76
2023-05-16T22:09:50.974Z,15.72
2023-05-16T22:12:18.740Z,15.62
2023-05-16T22:14:46.420Z,15.65
2023-05-16T22:17:14.078Z,15.55
2023-05-16T22:19:42.550Z,15.52
2023-05-16T22:22:11.420Z,15.47
2023-05-16T22:24:39.080Z,15.55
2023-05-16T22:27:06.810Z,15.55
2023-05-16T22:29:38.300Z,15.47
2023-05-16T22:32:10.829Z,15.46
2023-05-16T22:34:41.676Z,15.42
2023-05-16T22:37:10.011Z,15.34
2023-05-16T22:39:37.719Z,15.35
2023-05-16T22:42:05.694Z,15.36
2023-05-16T22:44:33.416Z,15.28
2023-05-16T22:47:00.922Z,15.28
2023-05-16T22:49:28.553Z,15.33
2023-05-16T22:51:56.268Z,15.26
2023-05-16T22:54:23.895Z,15.31
2023-05-16T22:56:51.673Z,15.27
2023-05-16T22:59:19.340Z,15.20
2023-05-16T23:01:46.964Z,15.22
2023-05-16T23:04:14.602Z,15.20
2023-05-16T23:06:42.159Z,15.16
2023-05-16T23:09:09.845Z,15.13
2023-05-16T23:11:37.405Z,15.11
2023-05-16T23:14:05.158Z,15.06
2023-05-16T23:16:32.733Z,15.13
2023-05-16T23:19:00.505Z,15.14
2023-05-16T23:21:28.284Z,15.11
2023-05-16T23:23:55.922Z,15.09
2023-05-16T23:26:23.533Z,15.05
2023-05-16T23:28:51.583Z,15.04
2023-05-16T23:31:19.346Z,14.96
2023-05-16T23:33:47.076Z,14.98
2023-05-16T23:36:14.671Z,14.98
2023-05-16T23:38:42.374Z,14.89
2023-05-16T23:41:09.957Z,14.93
2023-05-16T23:43:37.659Z,14.93
2023-05-16T23:46:05.407Z,14.90
2023-05-16T23:48:33.312Z,14.83
2023-05-16T23:51:01.209Z,14.83
2023-05-16T23:53:31.145Z,14.80
2023-05-16T23:55:58.758Z,14.80
2023-05-16T23:58:26.495Z,14.83
